Time;durP1;ratioP1;P1;durP2;ratioP2;P2;SDS_P1;SDS_P2;PMS_P1;PMS_P2;Temp;Humidity;BMP_temperature;BMP_pressure;BME280_temperature;BME280_humidity;BME280_pressure;Samples;Min_cycle;Max_cycle;Signal;HPM_P1;HPM_P2
2023/09/21 00:00:16;;;;;;;6.30;5.43;;;;;;;15.64;100.00;100798.28;5056149;28;20093;-67
2023/09/21 00:02:49;;;;;;;5.87;5.37;;;;;;;15.55;100.00;100788.66;5055857;28;20033;-68
2023/09/21 00:05:19;;;;;;;7.33;6.03;;;;;;;15.66;100.00;100801.59;5054666;28;20076;-67
2023/09/21 00:07:45;;;;;;;8.37;6.47;;;;;;;15.68;100.00;100810.28;5054586;28;20526;-69
2023/09/21 00:10:12;;;;;;;6.27;5.67;;;;;;;15.61;100.00;100797.81;5055911;28;20025;-68
2023/09/21 00:12:39;;;;;;;7.00;5.90;;;;;;;15.63;100.00;100796.63;5055620;28;20464;-67
2023/09/21 00:15:06;;;;;;;5.40;4.90;;;;;;;15.69;100.00;100800.38;5055586;28;20036;-66
2023/09/21 00:17:37;;;;;;;5.73;5.13;;;;;;;15.67;100.00;100797.91;5055716;28;20035;-67
2023/09/21 00:20:10;;;;;;;5.50;4.83;;;;;;;15.74;100.00;100809.50;5055764;28;20024;-69
2023/09/21 00:22:36;;;;;;;6.13;5.23;;;;;;;15.69;100.00;100806.59;5055596;28;20370;-67
2023/09/21 00:25:09;;;;;;;5.47;4.97;;;;;;;15.68;100.00;100804.09;5055474;28;20112;-68
2023/09/21 00:27:36;;;;;;;7.07;5.20;;;;;;;15.54;100.00;100781.63;5055296;28;20145;-70
2023/09/21 00:30:04;;;;;;;5.93;5.37;;;;;;;15.67;100.00;100810.50;5055105;28;20550;-67
2023/09/21 00:32:38;;;;;;;5.97;5.37;;;;;;;15.69;100.00;100811.13;5053983;28;20396;-68
2023/09/21 00:35:07;;;;;;;7.43;4.97;;;;;;;15.75;100.00;100821.91;5055285;28;20041;-68
2023/09/21 00:37:36;;;;;;;5.27;4.70;;;;;;;15.70;100.00;100819.00;5055544;28;20082;-68
2023/09/21 00:40:13;;;;;;;4.97;4.47;;;;;;;15.68;100.00;100815.66;5054967;28;20095;-68
2023/09/21 00:42:41;;;;;;;6.27;4.70;;;;;;;15.72;100.00;100832.22;5054465;28;20024;-68
2023/09/21 00:45:08;;;;;;;5.60;5.07;;;;;;;15.74;100.00;100833.69;5054430;28;20021;-69
2023/09/21 00:47:42;;;;;;;5.20;4.70;;;;;;;15.64;100.00;100814.41;5055400;28;20033;-66
2023/09/21 00:50:12;;;;;;;5.80;5.20;;;;;;;15.58;100.00;100799.03;5054600;28;20048;-70
2023/09/21 00:52:42;;;;;;;6.13;5.53;;;;;;;15.77;100.00;100835.13;5055164;28;20106;-68
2023/09/21 00:55:30;;;;;;;5.40;4.77;;;;;;;15.71;100.00;100820.66;5055682;28;20483;-68
2023/09/21 00:58:02;;;;;;;7.65;6.00;;;;;;;15.68;100.00;100820.22;5055002;28;20079;-67
2023/09/21 01:00:30;;;;;;;6.47;5.80;;;;;;;15.77;100.00;100835.97;5053825;28;20033;-68
2023/09/21 01:03:07;;;;;;;6.40;5.80;;;;;;;15.64;100.00;100816.25;5054462;28;20456;-67
2023/09/21 01:05:34;;;;;;;7.20;6.27;;;;;;;15.50;100.00;100791.94;5054799;28;20029;-69
2023/09/21 01:08:04;;;;;;;7.50;5.13;;;;;;;15.70;100.00;100813.63;5054984;28;20029;-66
2023/09/21 01:10:30;;;;;;;8.03;6.43;;;;;;;15.73;100.00;100834.69;5054706;28;20047;-69
2023/09/21 01:12:55;;;;;;;7.20;5.50;;;;;;;15.55;100.00;100799.41;5054594;28;20471;-69
2023/09/21 01:15:21;;;;;;;6.97;5.57;;;;;;;15.76;100.00;100837.00;5054992;28;20105;-68
2023/09/21 01:17:47;;;;;;;8.40;6.70;;;;;;;15.65;100.00;100809.84;5055692;28;20033;-67
2023/09/21 01:20:27;;;;;;;8.03;7.23;;;;;;;15.55;100.00;100794.03;5055142;28;20404;-66
2023/09/21 01:23:11;;;;;;;7.27;5.67;;;;;;;15.77;100.00;100830.59;5054744;28;20033;-69
2023/09/21 01:25:41;;;;;;;10.27;6.43;;;;;;;15.76;100.00;100826.25;5054695;28;20035;-70
2023/09/21 01:28:18;;;;;;;8.43;7.03;;;;;;;15.84;100.00;100840.56;5054781;28;20427;-67
2023/09/21 01:30:44;;;;;;;9.13;7.37;;;;;;;15.80;100.00;100838.25;5054512;28;20036;-68
2023/09/21 01:33:16;;;;;;;8.83;7.43;;;;;;;15.90;100.00;100853.19;5054282;28;20136;-69
2023/09/21 01:35:44;;;;;;;9.13;8.23;;;;;;;15.89;100.00;100843.47;5052686;28;20472;-67
2023/09/21 01:38:12;;;;;;;9.90;8.70;;;;;;;15.83;100.00;100838.91;5053978;28;20024;-69
2023/09/21 01:40:38;;;;;;;10.10;8.87;;;;;;;15.83;100.00;100833.53;5053635;28;20031;-68
2023/09/21 01:43:08;;;;;;;10.33;9.10;;;;;;;15.79;100.00;100836.59;5054007;28;20025;-67
2023/09/21 01:45:37;;;;;;;10.97;9.20;;;;;;;15.95;100.00;100853.47;5054116;28;20044;-67
2023/09/21 01:48:08;;;;;;;11.23;9.40;;;;;;;15.87;100.00;100846.38;5052601;28;20103;-69
2023/09/21 01:50:40;;;;;;;17.88;9.90;;;;;;;15.94;100.00;100854.50;5052691;28;20388;-68
2023/09/21 01:53:08;;;;;;;12.33;10.10;;;;;;;15.95;100.00;100864.22;5053745;28;20024;-67
2023/09/21 01:55:35;;;;;;;15.70;10.80;;;;;;;15.94;100.00;100851.81;5052637;28;20483;-68
2023/09/21 01:58:01;;;;;;;11.33;10.23;;;;;;;15.99;100.00;100866.31;5053453;28;20463;-68
2023/09/21 02:00:26;;;;;;;12.33;11.07;;;;;;;15.99;100.00;100865.47;5052733;28;20063;-68
2023/09/21 02:02:53;;;;;;;11.80;10.60;;;;;;;15.96;100.00;100865.88;5053798;28;20029;-68
2023/09/21 02:05:19;;;;;;;13.90;10.37;;;;;;;15.72;100.00;100830.34;5053479;28;20074;-68
2023/09/21 02:07:45;;;;;;;12.33;10.77;;;;;;;15.95;100.00;100864.22;5053480;28;20482;-69
2023/09/21 02:10:11;;;;;;;11.03;9.63;;;;;;;15.92;100.00;100872.66;5053998;28;20124;-67
2023/09/21 02:12:38;;;;;;;14.13;9.53;;;;;;;15.95;100.00;100880.31;5053576;28;20167;-68
2023/09/21 02:15:10;;;;;;;10.47;9.33;;;;;;;15.98;100.00;100896.06;5053310;28;20113;-67
2023/09/21 02:17:39;;;;;;;11.47;9.30;;;;;;;15.96;100.00;100890.03;5051798;28;20021;-71
2023/09/21 02:20:14;;;;;;;;;;;;;;;15.99;100.00;100892.34;5053566;28;20025;-67
2023/09/21 02:22:56;;;;;;;12.40;9.95;;;;;;;15.91;100.00;100882.56;5053589;28;19909;-68
2023/09/21 02:25:22;;;;;;;9.70;8.47;;;;;;;15.92;100.00;100886.91;5053356;28;20021;-68
2023/09/21 02:27:48;;;;;;;11.35;8.95;;;;;;;15.76;100.00;100868.38;5053120;28;20021;-66
2023/09/21 02:30:21;;;;;;;9.57;8.53;;;;;;;15.89;100.00;100881.09;5053002;28;20036;-67
2023/09/21 02:32:49;;;;;;;9.43;8.53;;;;;;;15.93;100.00;100893.13;5052845;28;20053;-68
2023/09/21 02:35:19;;;;;;;13.75;8.43;;;;;;;15.89;100.00;100898.03;5052938;28;20048;-68
2023/09/21 02:37:46;;;;;;;9.38;7.05;;;;;;;15.92;100.00;100912.94;5052915;28;20044;-69
2023/09/21 02:40:16;;;;;;;9.53;7.77;;;;;;;15.88;100.00;100899.06;5052648;28;20111;-68
2023/09/21 02:42:49;;;;;;;13.20;5.88;;;;;;;15.91;100.00;100905.91;5052754;28;20115;-70
2023/09/21 02:45:23;;;;;;;9.05;7.28;;;;;;;15.85;100.00;100899.44;5052788;28;20157;-68
2023/09/21 02:47:51;;;;;;;7.70;7.00;;;;;;;15.87;100.00;100910.00;5052436;28;20029;-68
2023/09/21 02:50:25;;;;;;;9.63;5.90;;;;;;;15.89;100.00;100913.31;5052710;28;20059;-69
2023/09/21 02:52:56;;;;;;;5.93;5.30;;;;;;;15.89;100.00;100913.31;5052706;28;20427;-67
2023/09/21 02:55:26;;;;;;;7.47;5.30;;;;;;;15.89;100.00;100913.31;5052556;28;20388;-67
2023/09/21 02:57:59;;;;;;;8.83;5.40;;;;;;;15.82;100.00;100904.38;5052436;28;20064;-68
2023/09/21 03:00:39;;;;;;;9.05;5.15;;;;;;;15.85;100.00;100912.03;5052623;28;20032;-69
2023/09/21 03:03:06;;;;;;;6.57;4.82;;;;;;;15.91;100.00;100919.34;5052742;28;20028;-68
2023/09/21 03:05:33;;;;;;;5.53;4.68;;;;;;;15.90;100.00;100925.72;5052509;28;20025;-68
2023/09/21 03:08:04;;;;;;;9.98;4.68;;;;;;;15.90;100.00;100931.09;5052284;28;20032;-69
2023/09/21 03:10:29;;;;;;;7.40;5.18;;;;;;;15.86;100.00;100921.75;5052275;28;20036;-69
2023/09/21 03:12:55;;;;;;;5.30;4.80;;;;;;;15.84;100.00;100916.59;5052234;28;20033;-70
2023/09/21 03:15:22;;;;;;;7.07;4.65;;;;;;;15.81;100.00;100908.91;5052357;28;20033;-68
2023/09/21 03:17:54;;;;;;;8.80;5.00;;;;;;;15.71;100.00;100892.31;5052442;28;20029;-68
2023/09/21 03:20:37;;;;;;;6.47;4.37;;;;;;;15.77;100.00;100910.31;5050778;28;20025;-67
2023/09/21 03:23:11;;;;;;;7.93;4.37;;;;;;;15.88;100.00;100927.75;5051623;28;20055;-68
2023/09/21 03:25:42;;;;;;;6.43;4.70;;;;;;;15.93;100.00;100928.03;5052318;28;20025;-68
2023/09/21 03:28:12;;;;;;;8.27;5.00;;;;;;;15.95;100.00;100934.88;5052140;28;20033;-67
2023/09/21 03:30:42;;;;;;;6.57;4.70;;;;;;;15.88;100.00;100930.44;5052484;28;20045;-68
2023/09/21 03:33:09;;;;;;;5.17;4.67;;;;;;;15.82;100.00;100928.53;5051396;28;20080;-67
2023/09/21 03:35:37;;;;;;;9.10;4.27;;;;;;;15.89;100.00;100943.69;5052079;28;20110;-68
2023/09/21 03:38:12;;;;;;;14.35;4.32;;;;;;;15.91;100.00;100948.91;5052081;28;20033;-66
2023/09/21 03:40:40;;;;;;;5.82;4.25;;;;;;;15.93;100.00;100952.22;5051996;28;20031;-68
2023/09/21 03:43:10;;;;;;;7.67;4.10;;;;;;;15.94;100.00;100953.88;5050673;28;20029;-68
2023/09/21 03:45:38;;;;;;;4.63;3.83;;;;;;;15.85;100.00;100938.91;5050597;28;20035;-68
2023/09/21 03:48:06;;;;;;;11.02;4.70;;;;;;;15.89;100.00;100950.91;5051965;28;20174;-67
2023/09/21 03:50:32;;;;;;;5.90;3.57;;;;;;;15.91;100.00;100960.47;5051937;28;20027;-67
2023/09/21 03:53:05;;;;;;;6.07;4.37;;;;;;;15.89;100.00;100959.81;5051840;28;20033;-69
2023/09/21 03:55:31;;;;;;;6.33;3.90;;;;;;;15.86;100.00;100954.81;5051736;28;20033;-67
2023/09/21 03:57:57;;;;;;;4.20;3.70;;;;;;;15.88;100.00;100960.00;5051924;28;20044;-70
2023/09/21 04:00:29;;;;;;;5.00;3.50;;;;;;;15.77;100.00;100947.91;5051759;28;20058;-67
2023/09/21 04:03:09;;;;;;;6.00;3.63;;;;;;;15.90;100.00;100958.81;5034020;28;20032;-69
2023/09/21 04:05:35;;;;;;;4.67;4.17;;;;;;;15.99;100.00;100970.25;5051585;28;20128;-68
2023/09/21 04:08:02;;;;;;;6.95;3.63;;;;;;;15.95;100.00;100955.53;5051628;28;20025;-67
2023/09/21 04:10:28;;;;;;;8.07;3.90;;;;;;;16.05;100.00;100978.34;5050669;28;20043;-68
2023/09/21 04:12:56;;;;;;;5.53;3.47;;;;;;;16.10;100.00;100975.06;5052079;28;20036;-67
2023/09/21 04:15:24;;;;;;;7.37;4.33;;;;;;;16.09;100.00;100966.19;5052480;28;20097;-68
2023/09/21 04:17:51;;;;;;;4.78;3.35;;;;;;;16.14;100.00;100970.97;5051193;28;20031;-67
2023/09/21 04:20:18;;;;;;;5.83;3.70;;;;;;;16.16;100.00;100976.16;5051944;28;20029;-67
2023/09/21 04:22:45;;;;;;;6.32;3.90;;;;;;;16.11;100.00;100966.00;5050507;28;20220;-68
2023/09/21 04:25:14;;;;;;;9.48;4.00;;;;;;;16.08;100.00;100971.75;5051480;28;20029;-69
2023/09/21 04:27:42;;;;;;;;;;;;;;;16.24;100.00;100990.31;5054523;28;20066;-67
2023/09/21 04:30:09;;;;;;;9.95;4.28;;;;;;;16.17;100.00;100988.56;5055425;28;19920;-71
2023/09/21 04:32:39;;;;;;;4.40;3.70;;;;;;;16.26;100.00;100998.19;5053195;28;20056;-70
2023/09/21 04:35:06;;;;;;;7.10;3.80;;;;;;;16.01;100.00;100962.81;5054194;28;20394;-71
2023/09/21 04:37:35;;;;;;;5.63;3.60;;;;;;;16.26;100.00;101000.84;5055652;28;20090;-69
2023/09/21 04:40:09;;;;;;;7.70;3.37;;;;;;;16.25;100.00;100988.44;5055385;28;20017;-69
2023/09/21 04:42:40;;;;;;;7.88;3.40;;;;;;;16.30;100.00;101007.50;5055232;28;20021;-70
2023/09/21 04:45:10;;;;;;;4.82;3.38;;;;;;;16.29;100.00;100992.41;5053801;28;20029;-67
2023/09/21 04:47:37;;;;;;;5.77;3.13;;;;;;;16.42;100.00;101016.69;5055203;28;20040;-69
2023/09/21 04:50:06;;;;;;;5.20;3.50;;;;;;;16.44;100.00;101017.31;5054786;28;20029;-68
2023/09/21 04:52:34;;;;;;;5.35;3.60;;;;;;;16.31;100.00;101004.63;5054314;28;20036;-68
2023/09/21 04:54:59;;;;;;;8.38;4.25;;;;;;;16.40;100.00;101019.56;5053488;28;20171;-67
2023/09/21 04:57:30;;;;;;;6.40;3.30;;;;;;;16.46;100.00;101030.56;5037162;28;20052;-67
2023/09/21 04:59:56;;;;;;;5.68;3.75;;;;;;;16.47;100.00;101026.84;5053747;28;20110;-67
2023/09/21 05:02:21;;;;;;;6.57;4.43;;;;;;;16.48;100.00;101020.44;5054612;28;20087;-67
2023/09/21 05:04:47;;;;;;;8.52;4.50;;;;;;;16.46;100.00;101017.97;5053204;28;20044;-68
2023/09/21 05:07:14;;;;;;;8.82;3.65;;;;;;;16.42;100.00;101027.44;5054727;28;20342;-67
2023/09/21 05:09:43;;;;;;;7.65;3.53;;;;;;;16.40;100.00;101016.88;5054543;28;20031;-66
2023/09/21 05:12:08;;;;;;;6.78;4.53;;;;;;;16.46;100.00;101033.25;5054466;28;20025;-66
2023/09/21 05:14:34;;;;;;;4.80;3.53;;;;;;;16.34;100.00;101014.97;5054894;28;20102;-66
2023/09/21 05:17:00;;;;;;;7.45;3.95;;;;;;;16.48;100.00;101047.34;5054439;28;20024;-68
2023/09/21 05:19:26;;;;;;;6.00;4.13;;;;;;;16.50;100.00;101039.94;5054457;28;20380;-67
2023/09/21 05:21:56;;;;;;;6.72;3.78;;;;;;;16.37;100.00;101029.88;5060881;28;20393;-67
2023/09/21 05:24:24;;;;;;;9.23;4.10;;;;;;;16.52;100.00;101037.88;5065099;28;20013;-70
2023/09/21 05:26:50;;;;;;;8.77;4.80;;;;;;;16.47;100.00;101041.13;5057449;28;20033;-72
2023/09/21 05:29:16;;;;;;;8.45;4.63;;;;;;;16.59;100.00;101055.72;5057042;28;20384;-73
2023/09/21 05:31:41;;;;;;;6.53;4.13;;;;;;;16.45;100.00;101026.22;5056470;28;20603;-70
2023/09/21 05:34:09;;;;;;;6.25;4.45;;;;;;;16.66;100.00;101055.78;5057557;28;20420;-66
2023/09/21 05:36:34;;;;;;;6.82;4.00;;;;;;;16.67;100.00;101060.16;5057972;28;20039;-70
2023/09/21 05:39:01;;;;;;;13.45;4.07;;;;;;;16.57;100.00;101056.94;5057509;28;20028;-69
2023/09/21 05:41:27;;;;;;;7.03;4.60;;;;;;;16.48;100.00;101058.94;5057626;28;20040;-68
2023/09/21 05:43:53;;;;;;;8.32;4.63;;;;;;;16.57;100.00;101073.06;5056790;28;20025;-71
2023/09/21 05:46:18;;;;;;;7.07;5.07;;;;;;;16.56;100.00;101071.41;5053399;28;20031;-66
2023/09/21 05:48:45;;;;;;;7.22;4.53;;;;;;;16.50;100.00;101059.59;5053703;28;20047;-70
2023/09/21 05:51:12;;;;;;;16.75;6.13;;;;;;;16.68;100.00;101089.53;5053771;28;20031;-68
2023/09/21 05:53:37;;;;;;;9.88;5.13;;;;;;;16.64;100.00;101093.63;5054082;28;20021;-72
2023/09/21 05:56:04;;;;;;;6.32;4.60;;;;;;;16.59;100.00;101084.47;5052329;28;20023;-70
2023/09/21 05:58:30;;;;;;;7.07;4.88;;;;;;;16.60;100.00;101088.81;5053512;28;20037;-69
2023/09/21 06:00:59;;;;;;;8.88;5.55;;;;;;;16.60;100.00;101096.88;5053313;28;20029;-68
2023/09/21 06:03:26;;;;;;;8.30;4.45;;;;;;;16.64;100.00;101103.53;5059652;28;20021;-68
2023/09/21 06:05:52;;;;;;;10.73;5.25;;;;;;;16.66;100.00;101112.28;5053486;28;20044;-69
2023/09/21 06:08:19;;;;;;;13.57;5.20;;;;;;;16.70;100.00;101121.63;5052310;28;20100;-68
2023/09/21 06:10:48;;;;;;;10.43;5.35;;;;;;;16.70;100.00;101117.06;5053607;28;20164;-69
2023/09/21 06:13:14;;;;;;;11.52;4.90;;;;;;;16.74;100.00;101120.19;5049386;28;20029;-70
2023/09/21 06:15:48;;;;;;;6.85;4.78;;;;;;;16.11;100.00;101022.41;5053722;28;20345;-69
2023/09/21 06:18:14;;;;;;;9.98;4.70;;;;;;;16.70;100.00;101110.84;5053846;28;20094;-69
2023/09/21 06:20:44;;;;;;;12.50;4.88;;;;;;;16.72;100.00;101109.63;5053520;28;20028;-69
2023/09/21 06:23:09;;;;;;;7.43;5.05;;;;;;;16.82;100.00;101112.00;5052087;28;20028;-70
2023/09/21 06:25:36;;;;;;;7.15;4.82;;;;;;;16.84;100.00;101101.88;5053327;28;20032;-70
2023/09/21 06:28:02;;;;;;;13.52;5.68;;;;;;;16.99;100.00;101126.81;5053453;28;20052;-69
2023/09/21 06:30:28;;;;;;;9.95;5.00;;;;;;;17.07;100.00;101127.72;5053255;28;20167;-69
2023/09/21 06:32:55;;;;;;;6.10;4.25;;;;;;;16.75;100.00;101068.06;5053220;28;20143;-71
2023/09/21 06:35:24;;;;;;;9.52;4.72;;;;;;;17.10;100.00;101116.56;5053319;28;20033;-69
2023/09/21 06:37:56;;;;;;;5.70;3.80;;;;;;;17.08;100.00;101122.13;5053814;28;20590;-70
2023/09/21 06:40:26;;;;;;;8.07;5.22;;;;;;;16.82;100.00;101077.03;5052294;28;20052;-69
2023/09/21 06:42:52;;;;;;;10.05;4.97;;;;;;;17.15;100.00;101136.47;5051693;28;20384;-73
2023/09/21 06:45:18;;;;;;;11.30;4.80;;;;;;;17.18;100.00;101136.06;5053234;28;20028;-69
2023/09/21 06:47:47;;;;;;;11.45;5.00;;;;;;;17.19;100.00;101131.53;5052775;28;20471;-71
2023/09/21 06:50:16;;;;;;;7.70;5.10;;;;;;;17.23;100.00;101127.41;5053124;28;20515;-71
2023/09/21 06:52:42;;;;;;;6.90;4.38;;;;;;;17.32;100.00;101143.19;5051514;28;20083;-71
2023/09/21 06:55:09;;;;;;;6.93;4.55;;;;;;;17.33;100.00;101135.94;5052650;28;20503;-71
2023/09/21 06:57:34;;;;;;;4.80;4.05;;;;;;;17.49;100.00;101146.41;5051719;28;20025;-66
2023/09/21 07:00:02;;;;;;;7.05;4.50;;;;;;;17.53;100.00;101142.28;5052491;28;20032;-69
2023/09/21 07:02:32;;;;;;;10.80;4.65;;;;;;;17.71;100.00;101157.13;5052648;28;20075;-70
2023/09/21 07:04:57;;;;;;;11.15;4.57;;;;;;;17.78;100.00;101152.59;5052425;28;20028;-68
2023/09/21 07:07:23;;;;;;;8.27;5.00;;;;;;;17.76;100.00;101143.88;5052450;28;20319;-68
2023/09/21 07:09:48;;;;;;;8.95;6.43;;;;;;;17.72;100.00;101137.25;5052176;28;20395;-66
2023/09/21 07:12:14;;;;;;;11.25;4.63;;;;;;;17.94;100.00;101157.66;5050971;28;20116;-70
2023/09/21 07:14:41;;;;;;;6.93;4.78;;;;;;;18.07;100.00;101160.38;5052717;28;20033;-66
2023/09/21 07:17:07;;;;;;;16.80;5.55;;;;;;;18.22;100.00;101171.03;5052460;28;20036;-68
2023/09/21 07:19:37;;;;;;;6.80;4.10;;;;;;;18.09;100.00;101128.66;5051495;28;20163;-69
2023/09/21 07:22:03;;;;;;;11.30;4.97;;;;;;;18.37;100.00;101189.72;5052340;28;20025;-69
2023/09/21 07:24:30;;;;;;;9.65;6.63;;;;;;;18.05;100.00;101138.19;5051835;28;20025;-69
2023/09/21 07:26:56;;;;;;;12.32;4.15;;;;;;;18.05;100.00;101156.22;5051321;28;20117;-68
2023/09/21 07:29:23;;;;;;;10.25;5.20;;;;;;;18.21;100.00;101191.75;5051937;28;20119;-68
2023/09/21 07:31:52;;;;;;;10.18;5.32;;;;;;;18.17;100.00;101190.47;5051522;28;20251;-68
2023/09/21 07:34:17;;;;;;;;;;;;;;;18.23;100.00;101183.47;5051069;28;20043;-67
2023/09/21 07:36:46;;;;;;;13.05;6.97;;;;;;;18.08;100.00;101163.91;5051697;28;19912;-69
2023/09/21 07:39:17;;;;;;;8.35;4.97;;;;;;;18.21;100.00;101170.19;5051617;28;20024;-70
2023/09/21 07:41:46;;;;;;;10.95;5.75;;;;;;;18.33;100.00;101169.59;5052146;28;20032;-72
2023/09/21 07:44:12;;;;;;;13.23;6.22;;;;;;;18.41;100.00;101190.97;5050721;28;20032;-73
2023/09/21 07:46:38;;;;;;;9.70;6.35;;;;;;;18.34;100.00;101196.34;5051849;28;20372;-69
2023/09/21 07:49:06;;;;;;;11.80;6.90;;;;;;;18.28;100.00;101191.78;5034024;28;20033;-69
2023/09/21 07:51:33;;;;;;;7.93;4.88;;;;;;;18.29;100.00;101204.22;5051477;28;20059;-70
2023/09/21 07:54:00;;;;;;;10.88;5.85;;;;;;;17.99;100.00;101165.13;5051696;28;20029;-71
2023/09/21 07:56:30;;;;;;;11.77;5.25;;;;;;;18.23;100.00;101213.97;5052005;28;20029;-70
2023/09/21 07:58:55;;;;;;;8.82;5.80;;;;;;;18.23;100.00;101216.66;5051883;28;20040;-70
2023/09/21 08:01:21;;;;;;;8.35;4.90;;;;;;;18.12;100.00;101203.72;5050489;28;20452;-71
2023/09/21 08:03:50;;;;;;;8.32;4.38;;;;;;;18.24;100.00;101223.72;5052281;28;20125;-73
2023/09/21 08:06:17;;;;;;;8.35;5.68;;;;;;;18.29;100.00;101215.00;5051941;28;20025;-70
2023/09/21 08:08:42;;;;;;;9.80;4.85;;;;;;;18.33;100.00;101215.44;5052230;28;20056;-73
2023/09/21 08:11:08;;;;;;;11.65;5.28;;;;;;;18.43;100.00;101229.34;5055824;28;20056;-69
2023/09/21 08:13:34;;;;;;;7.00;4.65;;;;;;;18.35;100.00;101216.06;5055481;28;20029;-69
2023/09/21 08:15:59;;;;;;;9.85;4.47;;;;;;;18.45;100.00;101229.97;5055716;28;20024;-70
2023/09/21 08:18:25;;;;;;;7.50;4.78;;;;;;;18.42;100.00;101225.00;5055554;28;20028;-70
2023/09/21 08:20:50;;;;;;;9.73;4.05;;;;;;;18.52;100.00;101237.06;5055367;28;20025;-69
2023/09/21 08:23:19;;;;;;;12.07;4.80;;;;;;;18.54;100.00;101234.19;5055728;28;20453;-74
2023/09/21 08:25:45;;;;;;;7.72;3.95;;;;;;;18.51;100.00;101229.19;5055603;28;20056;-71
2023/09/21 08:28:11;;;;;;;5.30;3.35;;;;;;;18.76;100.00;101238.38;5055572;28;20445;-71
2023/09/21 08:30:36;;;;;;;4.78;3.65;;;;;;;18.96;100.00;101243.00;5055526;28;20029;-70
2023/09/21 08:33:07;;;;;;;8.48;3.95;;;;;;;18.85;100.00;101226.38;5055618;28;20041;-69
2023/09/21 08:35:32;;;;;;;9.02;3.63;;;;;;;18.76;100.00;101224.91;5063495;28;20037;-69
2023/09/21 08:37:59;;;;;;;6.82;3.72;;;;;;;18.75;100.00;101242.13;5062974;28;20033;-70
2023/09/21 08:40:25;;;;;;;4.70;2.60;;;;;;;18.80;100.00;101252.31;5042632;28;20043;-69
2023/09/21 08:42:55;;;;;;;3.65;2.45;;;;;;;18.83;100.00;101243.81;5060621;28;20056;-70
2023/09/21 08:45:23;;;;;;;6.30;3.05;;;;;;;19.03;100.00;101257.31;5058182;28;20029;-73
2023/09/21 08:47:49;;;;;;;4.22;2.55;;;;;;;18.98;100.00;101224.72;5055831;28;20052;-70
2023/09/21 08:50:15;;;;;;;3.60;3.10;;;;;;;19.02;100.00;101242.16;5055203;28;20033;-70
2023/09/21 08:52:45;;;;;;;5.00;3.22;;;;;;;19.02;100.00;101244.88;5053815;28;20480;-71
2023/09/21 08:55:16;;;;;;;6.88;2.40;;;;;;;19.23;100.00;101251.94;5054852;28;20357;-70
2023/09/21 08:57:42;;;;;;;7.30;3.28;;;;;;;19.37;100.00;101259.00;5055129;28;20037;-70
2023/09/21 09:00:10;;;;;;;5.78;2.53;;;;;;;19.37;100.00;101240.94;5054976;28;20508;-70
2023/09/21 09:02:36;;;;;;;9.02;2.80;;;;;;;19.58;100.00;101263.38;5054799;28;20079;-71
2023/09/21 09:05:07;;;;;;;5.90;2.80;;;;;;;19.62;99.86;101267.31;5055112;28;20068;-71
2023/09/21 09:07:39;;;;;;;4.35;2.45;;;;;;;19.76;98.77;101275.22;5054669;28;20041;-70
2023/09/21 09:10:10;;;;;;;6.82;2.60;;;;;;;19.74;98.56;101269.19;5054650;28;20032;-70
2023/09/21 09:12:37;;;;;;;4.82;2.28;;;;;;;19.70;99.52;101267.97;5054543;28;20472;-70
2023/09/21 09:15:05;;;;;;;6.25;2.75;;;;;;;19.66;99.31;101282.06;5053333;28;20029;-68
2023/09/21 09:17:32;;;;;;;4.90;2.60;;;;;;;19.56;100.00;101284.38;5053559;28;20032;-67
2023/09/21 09:20:02;;;;;;;8.30;3.53;;;;;;;19.45;98.55;101269.59;5054459;28;20029;-69
2023/09/21 09:22:34;;;;;;;5.82;2.15;;;;;;;19.37;98.90;101273.34;5054887;28;20528;-67
2023/09/21 09:25:04;;;;;;;;;;;;;;;19.61;99.57;101285.41;5065063;28;20093;-68
2023/09/21 09:27:33;;;;;;;5.82;2.75;;;;;;;19.61;98.04;101274.59;5065073;28;19909;-68
2023/09/21 09:29:59;;;;;;;5.65;3.38;;;;;;;19.67;98.76;101292.69;5055504;28;20051;-68
2023/09/21 09:32:35;;;;;;;8.07;3.83;;;;;;;19.70;98.47;101288.75;5053139;28;20052;-68
2023/09/21 09:35:13;;;;;;;4.90;2.60;;;;;;;19.57;98.60;101288.75;5053599;28;20029;-68
2023/09/21 09:37:40;;;;;;;8.93;3.40;;;;;;;19.48;100.00;101297.03;5053367;28;20029;-71
2023/09/21 09:40:13;;;;;;;9.73;2.67;;;;;;;19.48;99.96;101302.44;5059598;28;20059;-67
2023/09/21 09:42:40;;;;;;;4.82;2.72;;;;;;;19.37;99.95;101294.97;5074935;28;20084;-69
2023/09/21 09:45:20;;;;;;;7.70;3.72;;;;;;;19.31;100.00;101290.38;5056083;28;20064;-68
2023/09/21 09:47:56;;;;;;;4.68;2.60;;;;;;;19.29;100.00;101297.84;5053835;28;20021;-70
2023/09/21 09:50:24;;;;;;;19.05;3.22;;;;;;;19.21;100.00;101292.66;5054536;28;20029;-68
2023/09/21 09:53:03;;;;;;;6.95;2.63;;;;;;;19.27;100.00;101299.94;5058063;28;20088;-66
2023/09/21 09:55:35;;;;;;;8.13;3.72;;;;;;;19.26;100.00;101298.25;5060471;28;20040;-68
2023/09/21 09:58:03;;;;;;;6.63;3.13;;;;;;;18.83;100.00;101233.84;5059656;28;20052;-67
2023/09/21 10:00:30;;;;;;;7.60;3.43;;;;;;;19.33;100.00;101301.78;5058064;28;20027;-69
2023/09/21 10:02:58;;;;;;;7.78;3.28;;;;;;;19.44;99.71;101309.28;5058910;28;20063;-69
2023/09/21 10:05:26;;;;;;;8.88;2.58;;;;;;;19.39;99.47;101301.00;5064435;28;20506;-67
2023/09/21 10:07:59;;;;;;;7.22;2.75;;;;;;;19.40;98.63;101305.34;5060439;28;20112;-69
2023/09/21 10:10:30;;;;;;;4.45;2.58;;;;;;;19.60;97.88;101318.03;5061141;28;20020;-67
2023/09/21 10:12:57;;;;;;;7.82;3.00;;;;;;;19.53;98.22;101282.06;5060279;28;20428;-68
2023/09/21 10:15:29;;;;;;;8.52;2.10;;;;;;;19.74;97.07;101312.44;5057746;28;20099;-68
2023/09/21 10:17:58;;;;;;;3.40;2.33;;;;;;;19.69;97.50;101300.59;5060336;28;20033;-69
2023/09/21 10:20:27;;;;;;;5.93;2.47;;;;;;;19.68;96.52;101297.06;5059387;28;20054;-67
2023/09/21 10:22:59;;;;;;;8.45;3.10;;;;;;;19.91;97.27;101315.50;5053683;28;20033;-67
2023/09/21 10:25:45;;;;;;;5.80;2.70;;;;;;;19.98;95.67;101323.63;5053745;28;20049;-67
2023/09/21 10:28:29;;;;;;;6.43;2.38;;;;;;;19.92;95.02;101321.75;5053373;28;20037;-71
2023/09/21 10:31:20;;;;;;;5.57;2.35;;;;;;;19.95;95.03;101327.59;5053321;28;20028;-71
2023/09/21 10:33:52;;;;;;;5.22;2.30;;;;;;;19.97;95.53;101339.03;5049751;28;20381;-70
2023/09/21 10:36:28;;;;;;;6.95;2.95;;;;;;;19.80;94.70;101316.16;5052998;28;20078;-71
2023/09/21 10:39:20;;;;;;;7.35;2.70;;;;;;;19.74;94.77;101314.31;5054363;28;20033;-69
2023/09/21 10:41:45;;;;;;;5.57;2.45;;;;;;;19.87;94.76;101333.19;5052182;28;20028;-72
2023/09/21 10:44:32;;;;;;;3.50;2.30;;;;;;;19.71;95.15;101326.38;5051532;28;20035;-69
2023/09/21 10:46:57;;;;;;;5.18;2.60;;;;;;;19.83;95.39;101331.97;5052757;28;20025;-71
2023/09/21 10:49:24;;;;;;;4.43;2.60;;;;;;;19.91;95.99;101334.44;5053375;28;20116;-70
2023/09/21 10:51:51;;;;;;;3.35;1.83;;;;;;;19.94;94.83;101334.00;5052852;28;20025;-72
2023/09/21 10:54:17;;;;;;;8.02;2.90;;;;;;;20.01;95.36;101340.25;5051573;28;20029;-70
2023/09/21 10:56:43;;;;;;;7.78;3.00;;;;;;;20.06;94.40;101342.34;5051348;28;20039;-70
2023/09/21 10:59:09;;;;;;;6.80;2.03;;;;;;;20.06;93.88;101336.91;5052613;28;20024;-69
2023/09/21 11:01:35;;;;;;;6.88;3.33;;;;;;;20.04;93.77;101330.91;5052820;28;20025;-70
2023/09/21 11:04:02;;;;;;;4.13;2.70;;;;;;;20.14;93.43;101343.97;5052895;28;20059;-73
2023/09/21 11:06:28;;;;;;;5.57;2.88;;;;;;;20.02;93.27;101341.91;5052521;28;20298;-69
2023/09/21 11:08:55;;;;;;;10.23;3.00;;;;;;;20.09;93.98;101358.97;5052838;28;20029;-70
2023/09/21 11:11:22;;;;;;;4.20;2.60;;;;;;;19.99;93.53;101345.06;5052245;28;20473;-71
2023/09/21 11:13:51;;;;;;;5.85;2.13;;;;;;;20.03;93.36;101349.00;5052379;28;20109;-72
2023/09/21 11:16:21;;;;;;;4.60;2.60;;;;;;;20.01;92.77;101345.66;5051875;28;20036;-68
2023/09/21 11:18:53;;;;;;;8.30;4.25;;;;;;;19.97;93.29;101351.72;5050498;28;20162;-69
2023/09/21 11:21:21;;;;;;;8.27;3.15;;;;;;;19.97;94.33;101355.25;5049988;28;20106;-71
2023/09/21 11:23:49;;;;;;;5.97;2.25;;;;;;;20.00;93.47;101360.22;5051768;28;20044;-70